Strona główna
METAR-TAF:

METAR-TAF

Lotnisko :

Port lotniczy Kair

Kair, Egipt

Szerokość geograficzna: 30-08N, Długość geograficzna: 031-24E, wysokość: 64 m

Aktualna obserwacja pogody

Raport powstał 31 minut temu, godzina 21:00 UTC
Wiatr 6 kt od południowo-południowy wschód
Temperatura 16°C
Wilgotność 51%
Ciśnienie 1020 hPa
Widzialność 10 km lub więcej
Brak chmur poniżej 1500 m i brak chmur cumulonimbus

METAR: HECA 092100Z 16006KT CAVOK 16/06 Q1020 NOSIG

czas: 23:31 (21:31 UTC)

Prognoza

Raport powstał 4 godziny i 31 minut temu, godzina 17:00 UTC
Prognoza ważna od 09 godzina 18 UTC do 10 godzina 24 UTC
Wiatr 10 kt od południowo-południowy zachód
Widzialność 10 km lub więcej
Brak chmur poniżej 1500 m i brak chmur cumulonimbus
Prawdopodobieństwo 30% :
Przejściowo
od 10 godzina 03 UTC do 10 godzina 06 UTC
Wiatr 3 kt z kierunków zmiennych
Widzialność: 3000 m
zmętnienie

TAF: HECA 091700Z 0918/1024 20010KT CAVOK PROB30 TEMPO 1003/1006 VRB03KT 3000 HZ NSC

Obserwacja i prognoza pogody dla ponad 4000 lotnisk (raport METAR i TAF).

Dostępne stacje oznaczono żółtymi i czerwonymi punktami na mapie.

Najedź kursorem aby zobaczyć nazwę stacji.

Kliknij aby zobaczyć obserwacje i prognozy pogody.

Aby zmienić mapę: kliknij na zielony przycisk z czarnym krzyżykiem, aby powiększyć; na zielony przycisk z myślnikiem, aby pomniejszyć; na zielone strzałki, aby przejść do map sąsiednich.


METAR-TAF: